• Join FlightAware (Why Join?)
  • Login
  • US Flag 
01:15AM EDT


 

Airport Tracker/Info


-or-


 

Live Flight TrackerFlight Track Log ✈ AFL150 ✈ 07-Jan-2014 ✈ UUEE / SVO - MUHA / HAV

Flight Track Log - Related Links

Times and Time Zones

All times are in EST time to prevent confusion due to time zone crossing. See the AFL150 flight status page for this flight to view local times or setup timezone preferences in your user account.

Time Position Orientation Groundspeed Altitude Reporting Facility
EST Latitude Longitude Course Direction KTS MPH feet Rate Location/Type
06:38AM 56.1007 36.8503 307° West  Level Estimated
06:39AM 56.1818 36.6521 306° West  Level Estimated
06:40AM 56.2625 36.4530 306° West  Level Estimated
06:41AM 56.3430 36.2531 306° West  Level Estimated
06:42AM 56.4231 36.0523 306° West  Level Estimated
06:43AM 56.5029 35.8507 306° West  Level Estimated
06:44AM 56.5824 35.6482 306° West  Level Estimated
06:45AM 56.6615 35.4449 305° West  Level Estimated
06:46AM 56.7403 35.2407 305° West  Level Estimated
06:47AM 56.8187 35.0357 305° West  Level Estimated
06:48AM 56.8969 34.8298 305° West  Level Estimated
06:49AM 56.9747 34.6230 305° West  Level Estimated
06:50AM 57.0521 34.4154 305° West  Level Estimated
06:51AM 57.1292 34.2069 304° West  Level Estimated
06:52AM 57.2060 33.9976 304° West  Level Estimated
06:53AM 57.2823 33.7874 304° West  Level Estimated
06:54AM 57.3449 33.6140 304° West  Level Estimated
06:55AM 57.4071 33.4400 304° West  Level Estimated
06:56AM 57.4692 33.2654 304° West  Level Estimated
06:57AM 57.5309 33.0903 303° West  Level Estimated
06:58AM 57.5925 32.9146 303° West  Level Estimated
06:59AM 57.6538 32.7382 303° West  Level Estimated
07:00AM 57.7149 32.5613 303° West  Level Estimated
07:01AM 57.7757 32.3838 303° West  Level Estimated
07:02AM 57.8362 32.2056 303° West  Level Estimated
07:03AM 57.8965 32.0269 302° West  Level Estimated
07:04AM 57.9566 31.8476 302° West  Level Estimated
07:05AM 58.0164 31.6676 302° West  Level Estimated
07:06AM 58.0760 31.4871 302° West  Level Estimated
07:07AM 58.1352 31.3060 302° West  Level Estimated
07:08AM 58.1943 31.1242 302° West  Level Estimated
07:09AM 58.2531 30.9419 302° West  Level Estimated
07:10AM 58.3116 30.7590 301° West  Level Estimated
07:10AM 56.6711 30.8177 301° West 418 481 34,000  Level FlightAware ADS-B (EVDA / DGP)
07:11AM 56.8066 30.4819 306° West 422 486 34,000  Level FlightAware ADS-B (EVDA / DGP)
07:12AM 56.8549 30.3519 304° West 424 488 34,000  Level FlightAware ADS-B (EVDA / DGP)
07:13AM 56.9504 30.0917 304° West 426 490 34,000  Level FlightAware ADS-B (EVDA / DGP)
07:14AM 56.9756 30.0229 304° West 426 490 34,000  Level FlightAware ADS-B (EVDA / DGP)
07:15AM 57.0522 29.8114 304° West 424 488 34,000  Level FlightAware ADS-B (EVDA / DGP)
07:16AM 57.1283 29.5997 304° West 426 490 34,000  Level FlightAware ADS-B (EVDA / DGP)
07:17AM 57.1984 29.4029 303° West 427 491 34,000  Level FlightAware ADS-B (EVDA / DGP)
07:18AM 57.2631 29.2198 303° West 428 493 34,000  Level FlightAware ADS-B (EVDA / DGP)
07:19AM 57.3279 29.0354 303° West 427 491 34,000  Level FlightAware ADS-B (EVDA / DGP)
07:20AM 57.3911 28.8543 303° West 430 495 34,000  Level FlightAware ADS-B (EVDA / DGP)
07:21AM 57.4527 28.6765 303° West 429 494 34,000  Level FlightAware ADS-B (EVDA / DGP)
07:22AM 57.5165 28.4906 303° West 425 489 34,000  Level FlightAware ADS-B (EVDA / DGP)
07:23AM 57.5802 28.3037 302° West 426 490 34,000  Level FlightAware ADS-B (EVDA / DGP)
07:24AM 57.6601 28.0673 302° West 426 490 34,000  Level FlightAware ADS-B (EVDA / DGP)
07:26AM 57.7606 27.7667 302° West 430 495 34,000  Level FlightAware ADS-B (EVDA / DGP)
07:27AM 57.7899 27.6787 302° West 429 494 34,000  Level FlightAware ADS-B (EVDA / DGP)
07:27AM 57.7898 27.6787 180° South 417 480 34,000  Level FlightAware ADS-B (EVDA / DGP)
07:28AM 57.8653 27.3893 296° West 419 482 34,000  Level FlightAware ADS-B (EVDA / DGP)
07:29AM 57.9094 27.1705 291° West 420 483 34,000  Level FlightAware ADS-B (EVDA / DGP)
07:30AM 57.9385 27.0257 291° West 422 486 34,000  Level FlightAware ADS-B (EVDA / DGP)
07:31AM 57.9939 26.7472 291° West 422 486 34,000  Level FlightAware ADS-B (EVDA / DGP)
07:33AM 58.0692 26.3624 298° West 423 487 34,000  Level FlightAware ADS-B (EVDA / DGP)
07:34AM 58.1166 26.1161 290° West 424 488 34,000  Level FlightAware ADS-B (EVDA / DGP)
07:35AM 58.1572 25.9024 290° West 426 490 34,000  Level FlightAware ADS-B (EVDA / DGP)
07:36AM 58.1572 25.9024 290° West 429 494 34,000  Level FlightAware ADS-B (EVDA / DGP)
07:37AM 58.2380 25.4718 290° West 429 494 34,000  Level FlightAware ADS-B (EVDA / DGP)
07:38AM 58.2710 25.2902 289° West 433 498 34,000  Level FlightAware ADS-B (EVDA / DGP)
07:54AM 58.8324 21.5229 294° West 441 507 34,000  Level FlightAware ADS-B (ESKB)
07:55AM 58.8511 21.3779 284° West 440 506 34,000  Level FlightAware ADS-B (ESKB)
07:56AM 58.8720 21.2597 289° West 442 509 34,000  Level FlightAware ADS-B (ESKB)
07:56AM 58.9008 21.0981 289° West 441 507 34,000  Level FlightAware ADS-B (ESKB)
07:57AM 58.9292 20.9299 288° West 442 509 34,000  Level FlightAware ADS-B (ESKB)
07:58AM 58.9522 20.7915 288° West 439 505 34,000  Level FlightAware ADS-B (YKMB / KRB)
07:58AM 58.9785 20.6321 288° West 442 509 34,000  Level FlightAware ADS-B (ESKB)
07:59AM 59.0032 20.4810 288° West 443 510 34,000  Level FlightAware ADS-B (ESKB)
08:00AM 59.0292 20.3216 288° West 443 510 34,000  Level FlightAware ADS-B (ESKB)
08:00AM 59.0529 20.1738 287° West 444 511 34,000  Level FlightAware ADS-B (ESKB)
08:01AM 59.0765 20.0254 287° West 444 511 34,000  Level FlightAware ADS-B (ESKB)
08:02AM 59.1024 19.8612 287° West 443 510 34,000  Level FlightAware ADS-B (ESKB)
08:02AM 59.1244 19.7205 287° West 444 511 34,000  Level FlightAware ADS-B (ESKB)
08:03AM 59.1492 19.5611 287° West 446 513 34,000  Level FlightAware ADS-B (ESKB)
08:04AM 59.1728 19.4073 287° West 446 513 34,000  Level FlightAware ADS-B (ESKB)
08:04AM 59.1961 19.2546 287° West 447 514 34,000  Level FlightAware ADS-B (ESKB)
08:05AM 59.2195 19.0996 287° West 447 514 34,000  Level FlightAware ADS-B (ESKB)
08:06AM 59.2414 18.9538 286° West 448 516 34,000  Level FlightAware ADS-B (ESKB)
08:06AM 59.2652 18.7934 286° West 449 517 34,000  Level FlightAware ADS-B (ESKB)
08:07AM 59.2876 18.6411 286° West 447 514 34,000  Level FlightAware ADS-B (ESKB)
08:07AM 59.3015 18.5454 286° West 444 511 34,000  Level FlightAware ADS-B (YKMB / KRB)
08:08AM 59.3218 18.4041 286° West 446 513 34,000  Level FlightAware ADS-B (ESKB)
08:09AM 59.3447 18.2446 286° West 446 513 34,000  Level FlightAware ADS-B (ESKB)
08:09AM 59.3663 18.0922 286° West 447 514 34,000  Level FlightAware ADS-B (ESKB)
08:10AM 59.3887 17.9335 286° West 447 514 34,000  Level FlightAware ADS-B (ESKB)
08:11AM 59.4101 17.7799 285° West 447 514 34,000  Level FlightAware ADS-B (ESKB)
08:11AM 59.4319 17.6221 285° West 445 512 34,000  Level FlightAware ADS-B (ESKB)
08:12AM 59.4527 17.4700 285° West 446 513 34,000  Level FlightAware ADS-B (ESKB)
08:13AM 59.4744 17.3091 285° West 446 513 34,000  Level FlightAware ADS-B (ESKB)
08:13AM 59.4894 17.1965 285° West 446 513 34,000  Level FlightAware ADS-B (ESKB)
08:14AM 59.5154 17.0009 285° West 440 506 34,000  Level FlightAware ADS-B (ESKB)
08:15AM 59.5358 16.8450 285° West 441 507 34,000  Level FlightAware ADS-B (ESKB)
08:15AM 59.5556 16.6919 284° West 442 509 34,000  Level FlightAware ADS-B (ESKB)
08:16AM 59.5757 16.5349 284° West 442 509 34,000  Level FlightAware ADS-B (ESKB)
08:17AM 59.5946 16.3865 284° West 444 511 34,000  Level FlightAware ADS-B (ESKB)
08:17AM 59.6147 16.2272 284° West 446 513 34,000  Level FlightAware ADS-B (ESKB)
08:18AM 59.6348 16.0653 284° West 445 512 34,000  Level FlightAware ADS-B (ESKB)
08:18AM 59.6403 16.0212 284° West 444 511 34,000  Level FlightAware ADS-B (YKMB / KRB)
08:19AM 59.6496 15.9458 284° West 444 511 34,000  Level FlightAware ADS-B (YKMB / KRB)
08:53AM 60.6305 7.5534 283° West 454 522 34,000  Level FlightAware ADS-B (EGBP)
08:53AM 60.6489 7.3804 282° West 452 520 34,000  Level FlightAware ADS-B (EGBP)
08:54AM 60.6666 7.2112 282° West 451 519 34,000  Level FlightAware ADS-B (EGBP)
08:55AM 60.6838 7.0457 282° West 450 518 34,000  Level FlightAware ADS-B (EGBP)
08:55AM 60.7006 6.8815 282° West 449 517 34,000  Level FlightAware ADS-B (EGBP)
08:56AM 60.7172 6.7179 282° West 450 518 34,000  Level FlightAware ADS-B (EGBP)
08:57AM 60.7319 6.5702 282° West 449 517 34,000  Level FlightAware ADS-B (EGBP)
08:57AM 60.7493 6.3939 281° West 449 517 34,000  Level FlightAware ADS-B (EGBP)
08:58AM 60.7662 6.2202 281° West 454 522 34,000  Level FlightAware ADS-B (EGBP)
08:59AM 60.7821 6.0562 281° West 454 522 34,000  Level FlightAware ADS-B (EGBP)
08:59AM 60.7987 5.8795 281° West 453 521 34,000  Level FlightAware ADS-B (EGBP)
09:00AM 60.8140 5.7138 281° West 451 519 34,000  Level FlightAware ADS-B (EGBP)
09:01AM 60.8278 5.5634 281° West 452 520 34,000  Level FlightAware ADS-B (EGBP)
09:03AM 60.8616 5.1611 280° West  Level Estimated
09:04AM 60.8803 4.9331 280° West  Level Estimated
09:05AM 60.8985 4.7047 279° West  Level Estimated
09:06AM 60.9164 4.4761 279° West  Level Estimated
09:07AM 60.9339 4.2473 279° West  Level Estimated
09:08AM 60.9510 4.0181 279° West  Level Estimated
09:09AM 60.9677 3.7888 279° West  Level Estimated
09:10AM 60.9840 3.5592 278° West  Level Estimated
09:11AM 60.9999 3.3294 278° West  Level Estimated
09:12AM 61.0154 3.0993 278° West  Level Estimated
09:13AM 61.0306 2.8691 278° West  Level Estimated
09:14AM 61.0453 2.6386 278° West  Level Estimated
09:15AM 61.0597 2.4079 277° West  Level Estimated
09:16AM 61.0737 2.1770 277° West  Level Estimated
09:17AM 61.0872 1.9459 277° West  Level Estimated
09:18AM 61.1004 1.7145 277° West  Level Estimated
09:19AM 61.1132 1.4830 277° West  Level Estimated
09:20AM 61.1255 1.2514 276° West  Level Estimated
09:21AM 61.1375 1.0195 276° West  Level Estimated
09:22AM 61.1491 0.7875 276° West  Level Estimated
09:23AM 61.1603 0.5553 276° West  Level Estimated
09:24AM 61.1711 0.3229 276° West  Level Estimated
09:25AM 61.1815 0.0904 275° West  Level Estimated
09:26AM 61.1915 -0.1423 275° West  Level Estimated
09:27AM 61.2011 -0.3751 275° West  Level Estimated
09:28AM 61.2103 -0.6080 275° West  Level Estimated
09:29AM 61.2191 -0.8411 275° West  Level Estimated
09:30AM 61.2274 -1.0743 274° West  Level Estimated
09:31AM 61.2354 -1.3077 274° West  Level Estimated
09:32AM 61.2430 -1.5411 274° West  Level Estimated
09:33AM 61.2502 -1.7747 274° West  Level Estimated
09:34AM 61.2570 -2.0083 274° West  Level Estimated
09:35AM 61.2634 -2.2421 273° West  Level Estimated
09:36AM 61.2694 -2.4759 273° West  Level Estimated
09:37AM 61.2750 -2.7099 273° West  Level Estimated
09:38AM 61.2801 -2.9439 273° West  Level Estimated
09:39AM 61.2849 -3.1780 273° West  Level Estimated
09:40AM 61.2893 -3.4121 272° West  Level Estimated
09:41AM 61.2933 -3.6464 272° West  Level Estimated
09:42AM 61.2968 -3.8807 272° West  Level Estimated
09:43AM 61.3000 -4.1150 272° West  Level Estimated
09:44AM 61.3027 -4.3493 272° West  Level Estimated
09:45AM 61.3051 -4.5838 271° West  Level Estimated
09:46AM 61.3071 -4.8182 271° West  Level Estimated
09:47AM 61.3086 -5.0527 271° West  Level Estimated
09:48AM 61.3097 -5.2872 271° West  Level Estimated
09:49AM 61.3105 -5.5217 270° West  Level Estimated
09:50AM 61.3108 -5.7562 270° West  Level Estimated
09:51AM 61.3108 -5.9907 270° West  Level Estimated
09:52AM 61.3103 -6.2252 270° West  Level Estimated
09:53AM 61.3094 -6.4597 270° West  Level Estimated
09:54AM 61.3081 -6.6942 269° West  Level Estimated
09:55AM 61.3064 -6.9286 269° West  Level Estimated
09:56AM 61.3044 -7.1631 269° West  Level Estimated
09:57AM 61.3019 -7.3975 269° West  Level Estimated
09:58AM 61.2990 -7.6318 269° West  Level Estimated
09:59AM 61.2957 -7.8661 268° West  Level Estimated
10:00AM 61.2920 -8.1004 268° West  Level Estimated
10:01AM 61.2878 -8.3346 268° West  Level Estimated
10:02AM 61.2833 -8.5688 268° West  Level Estimated
10:03AM 61.2784 -8.8028 268° West  Level Estimated
10:04AM 61.2731 -9.0368 267° West  Level Estimated
10:05AM 61.2674 -9.2707 267° West  Level Estimated
10:06AM 61.2613 -9.5045 267° West  Level Estimated
10:07AM 61.2547 -9.7383 267° West  Level Estimated
10:08AM 61.2478 -9.9719 267° West  Level Estimated
10:09AM 61.2405 -10.2054 266° West  Level Estimated
10:10AM 61.2328 -10.4388 266° West  Level Estimated
10:11AM 61.2246 -10.6721 266° West  Level Estimated
10:12AM 61.2161 -10.9053 266° West  Level Estimated
10:13AM 61.2072 -11.1383 266° West  Level Estimated
10:14AM 61.1978 -11.3712 265° West  Level Estimated
10:15AM 61.1881 -11.6040 265° West  Level Estimated
10:16AM 61.1780 -11.8366 265° West  Level Estimated
10:17AM 61.1674 -12.0691 265° West  Level Estimated
10:18AM 61.1565 -12.3014 265° West  Level Estimated
10:19AM 61.1452 -12.5335 264° West  Level Estimated
10:20AM 61.1335 -12.7655 264° West  Level Estimated
10:21AM 61.1214 -12.9973 264° West  Level Estimated
10:22AM 61.1088 -13.2289 264° West  Level Estimated
10:23AM 61.0959 -13.4603 264° West  Level Estimated
10:24AM 61.0826 -13.6916 263° West  Level Estimated
10:25AM 61.0689 -13.9226 263° West  Level Estimated
10:26AM 61.0549 -14.1535 263° West  Level Estimated
10:27AM 61.0404 -14.3841 263° West  Level Estimated
10:28AM 61.0255 -14.6145 263° West  Level Estimated
10:29AM 61.0102 -14.8447 262° West  Level Estimated
10:30AM 60.9945 -15.0747 262° West  Level Estimated
10:31AM 60.9785 -15.3044 262° West  Level Estimated
10:32AM 60.9621 -15.5339 262° West  Level Estimated
10:33AM 60.9452 -15.7632 262° West  Level Estimated
10:34AM 60.9280 -15.9923 261° West  Level Estimated
10:35AM 60.9104 -16.2210 261° West  Level Estimated
10:36AM 60.8924 -16.4496 261° West  Level Estimated
10:37AM 60.8740 -16.6778 261° West  Level Estimated
10:38AM 60.8552 -16.9058 261° West  Level Estimated
10:39AM 60.8361 -17.1335 260° West  Level Estimated
10:40AM 60.8165 -17.3610 260° West  Level Estimated
10:41AM 60.7966 -17.5881 260° West  Level Estimated
10:42AM 60.7763 -17.8150 260° West  Level Estimated
10:43AM 60.7556 -18.0416 260° West  Level Estimated
10:44AM 60.7345 -18.2679 259° West  Level Estimated
10:45AM 60.7131 -18.4939 259° West  Level Estimated
10:46AM 60.6912 -18.7196 259° West  Level Estimated
10:47AM 60.6690 -18.9450 259° West  Level Estimated
10:48AM 60.6464 -19.1701 259° West  Level Estimated
10:49AM 60.6235 -19.3948 258° West  Level Estimated
10:50AM 60.6001 -19.6192 258° West  Level Estimated
10:51AM 60.5764 -19.8433 258° West  Level Estimated
10:52AM 60.5523 -20.0671 258° West  Level Estimated
10:53AM 60.5278 -20.2906 258° West  Level Estimated
10:54AM 60.5030 -20.5137 257° West  Level Estimated
10:55AM 60.4778 -20.7364 257° West  Level Estimated
10:56AM 60.4522 -20.9588 257° West  Level Estimated
10:57AM 60.4262 -21.1808 257° West  Level Estimated
10:58AM 60.3999 -21.4025 257° West  Level Estimated
10:59AM 60.3732 -21.6239 256° West  Level Estimated
11:00AM 60.3462 -21.8448 256° West  Level Estimated
11:01AM 60.3187 -22.0654 256° West  Level Estimated
11:02AM 60.2910 -22.2857 256° West  Level Estimated
11:03AM 60.2628 -22.5055 256° West  Level Estimated
11:04AM 60.2343 -22.7250 255° West  Level Estimated
11:05AM 60.2054 -22.9441 255° West  Level Estimated
11:06AM 60.1762 -23.1628 255° West  Level Estimated
11:07AM 60.1466 -23.3811 255° West  Level Estimated
11:08AM 60.1166 -23.5990 255° West  Level Estimated
11:09AM 60.0863 -23.8165 254° West  Level Estimated
11:10AM 60.0556 -24.0336 254° West  Level Estimated
11:11AM 60.0246 -24.2503 254° West  Level Estimated
11:12AM 59.9933 -24.4666 254° West  Level Estimated
11:13AM 59.9615 -24.6825 254° West  Level Estimated
11:14AM 59.9294 -24.8980 254° West  Level Estimated
11:15AM 59.8970 -25.1130 253° West  Level Estimated
11:16AM 59.8642 -25.3277 253° West  Level Estimated
11:17AM 59.8311 -25.5419 253° West  Level Estimated
11:18AM 59.7976 -25.7557 253° West  Level Estimated
11:19AM 59.7638 -25.9690 253° West  Level Estimated
11:20AM 59.7296 -26.1819 252° West  Level Estimated
11:21AM 59.6951 -26.3944 252° West  Level Estimated
11:22AM 59.6603 -26.6064 252° West  Level Estimated
11:23AM 59.6251 -26.8180 252° West  Level Estimated
11:24AM 59.5895 -27.0292 252° West  Level Estimated
11:25AM 59.5536 -27.2399 252° West  Level Estimated
11:26AM 59.5174 -27.4501 251° West  Level Estimated
11:27AM 59.4809 -27.6599 251° West  Level Estimated
11:28AM 59.4440 -27.8693 251° West  Level Estimated
11:29AM 59.4068 -28.0781 251° West  Level Estimated
11:30AM 59.3692 -28.2866 251° West  Level Estimated
11:31AM 59.3313 -28.4945 250° West  Level Estimated
11:32AM 59.2931 -28.7020 250° West  Level Estimated
11:33AM 59.2546 -28.9090 250° West  Level Estimated
11:34AM 59.2157 -29.1156 250° West  Level Estimated
11:35AM 59.1765 -29.3217 250° West  Level Estimated
11:36AM 59.1370 -29.5273 250° West  Level Estimated
11:37AM 59.0971 -29.7325 249° West  Level Estimated
11:38AM 59.0570 -29.9371 249° West  Level Estimated
11:39AM 59.0165 -30.1413 249° West  Level Estimated
11:40AM 58.9757 -30.3450 249° West  Level Estimated
11:41AM 58.9346 -30.5482 249° West  Level Estimated
11:42AM 58.8931 -30.7509 248° West  Level Estimated
11:43AM 58.8513 -30.9532 248° West  Level Estimated
11:44AM 58.8092 -31.1549 248° West  Level Estimated
11:45AM 58.7668 -31.3562 248° West  Level Estimated
11:46AM 58.7241 -31.5569 248° West  Level Estimated
11:47AM 58.6811 -31.7572 248° West  Level Estimated
11:48AM 58.6378 -31.9570 247° West  Level Estimated
11:49AM 58.5942 -32.1563 247° West  Level Estimated
11:50AM 58.5502 -32.3551 247° West  Level Estimated
11:51AM 58.5060 -32.5533 247° West  Level Estimated
11:52AM 58.4614 -32.7511 247° West  Level Estimated
11:53AM 58.4165 -32.9484 247° West  Level Estimated
11:54AM 58.3714 -33.1452 246° West  Level Estimated
11:55AM 58.3259 -33.3414 246° West  Level Estimated
11:56AM 58.2802 -33.5372 246° West  Level Estimated
11:57AM 58.2341 -33.7325 246° West  Level Estimated
11:58AM 58.1877 -33.9272 246° West  Level Estimated
11:59AM 58.1411 -34.1214 246° West  Level Estimated
12:00PM 58.0941 -34.3152 245° Southwest  Level Estimated
12:01PM 58.0469 -34.5084 245° Southwest  Level Estimated
12:02PM 57.9994 -34.7011 245° Southwest  Level Estimated
12:03PM 57.9515 -34.8933 245° Southwest  Level Estimated
12:04PM 57.9034 -35.0850 245° Southwest  Level Estimated
12:05PM 57.8550 -35.2762 245° Southwest  Level Estimated
12:06PM 57.8063 -35.4668 244° Southwest  Level Estimated
12:07PM 57.7550 -35.6661 244° Southwest  Level Estimated
12:08PM 57.7033 -35.8649 244° Southwest  Level Estimated
12:09PM 57.6513 -36.0632 244° Southwest  Level Estimated
12:10PM 57.5990 -36.2609 244° Southwest  Level Estimated
12:11PM 57.5464 -36.4580 244° Southwest  Level Estimated
12:12PM 57.4935 -36.6546 243° Southwest  Level Estimated
12:13PM 57.4403 -36.8506 243° Southwest  Level Estimated
12:14PM 57.3867 -37.0460 243° Southwest  Level Estimated
12:15PM 57.3329 -37.2408 243° Southwest  Level Estimated
12:16PM 57.2788 -37.4351 243° Southwest  Level Estimated
12:17PM 57.2244 -37.6288 243° Southwest  Level Estimated
12:18PM 57.1696 -37.8219 242° Southwest  Level Estimated
12:19PM 57.1146 -38.0145 242° Southwest  Level Estimated
12:20PM 57.0593 -38.2065 242° Southwest  Level Estimated
12:21PM 57.0037 -38.3979 242° Southwest  Level Estimated
12:22PM 56.9478 -38.5887 242° Southwest  Level Estimated
12:23PM 56.8916 -38.7790 242° Southwest  Level Estimated
12:24PM 56.8351 -38.9687 242° Southwest  Level Estimated
12:25PM 56.7784 -39.1578 241° Southwest  Level Estimated
12:26PM 56.7213 -39.3464 241° Southwest  Level Estimated
12:27PM 56.6640 -39.5343 241° Southwest  Level Estimated
12:28PM 56.6064 -39.7217 241° Southwest  Level Estimated
12:29PM 56.5485 -39.9086 241° Southwest  Level Estimated
12:30PM 56.4903 -40.0948 241° Southwest  Level Estimated
12:31PM 56.4319 -40.2805 240° Southwest  Level Estimated
12:32PM 56.3731 -40.4656 240° Southwest  Level Estimated
12:33PM 56.3142 -40.6502 240° Southwest  Level Estimated
12:34PM 56.2549 -40.8341 240° Southwest  Level Estimated
12:35PM 56.1953 -41.0175 240° Southwest  Level Estimated
12:36PM 56.1355 -41.2004 240° Southwest  Level Estimated
12:37PM 56.0754 -41.3826 239° Southwest  Level Estimated
12:38PM 56.0151 -41.5643 239° Southwest  Level Estimated
12:39PM 55.9544 -41.7454 239° Southwest  Level Estimated
12:40PM 55.8936 -41.9260 239° Southwest  Level Estimated
12:41PM 55.8324 -42.1060 239° Southwest  Level Estimated
12:42PM 55.7710 -42.2854 239° Southwest  Level Estimated
12:43PM 55.7093 -42.4643 239° Southwest  Level Estimated
12:44PM 55.6474 -42.6426 238° Southwest  Level Estimated
12:45PM 55.5852 -42.8203 238° Southwest  Level Estimated
12:46PM 55.5228 -42.9975 238° Southwest  Level Estimated
12:47PM 55.4601 -43.1741 238° Southwest  Level Estimated
12:48PM 55.3971 -43.3501 238° Southwest  Level Estimated
12:49PM 55.3339 -43.5256 238° Southwest  Level Estimated
12:50PM 55.2705 -43.7005 238° Southwest  Level Estimated
12:51PM 55.2068 -43.8749 237° Southwest  Level Estimated
12:52PM 55.1428 -44.0487 237° Southwest  Level Estimated
12:53PM 55.0786 -44.2219 237° Southwest  Level Estimated
12:54PM 55.0142 -44.3946 237° Southwest  Level Estimated
12:55PM 54.9495 -44.5667 237° Southwest  Level Estimated
12:56PM 54.8846 -44.7383 237° Southwest  Level Estimated
12:57PM 54.8194 -44.9094 237° Southwest  Level Estimated
12:58PM 54.7540 -45.0798 236° Southwest  Level Estimated
12:59PM 54.6883 -45.2498 236° Southwest  Level Estimated
01:00PM 54.6224 -45.4192 236° Southwest  Level Estimated
01:01PM 54.5563 -45.5880 236° Southwest  Level Estimated
01:02PM 54.4900 -45.7563 236° Southwest  Level Estimated
01:03PM 54.4234 -45.9240 236° Southwest  Level Estimated
01:04PM 54.3565 -46.0912 236° Southwest  Level Estimated
01:05PM 54.2895 -46.2578 235° Southwest  Level Estimated
01:06PM 54.2222 -46.4239 235° Southwest  Level Estimated
01:07PM 54.1547 -46.5895 235° Southwest  Level Estimated
01:08PM 54.0870 -46.7545 235° Southwest  Level Estimated
01:09PM 54.0190 -46.9190 235° Southwest  Level Estimated
01:10PM 53.9510 -47.0825 235° Southwest  Level Estimated
01:11PM 53.8828 -47.2454 235° Southwest  Level Estimated
01:12PM 53.8144 -47.4079 235° Southwest  Level Estimated
01:13PM 53.7457 -47.5698 234° Southwest  Level Estimated
01:14PM 53.6768 -47.7312 234° Southwest  Level Estimated
01:15PM 53.6077 -47.8921 234° Southwest  Level Estimated
01:16PM 53.5384 -48.0524 234° Southwest  Level Estimated
01:17PM 53.4689 -48.2122 234° Southwest  Level Estimated
01:18PM 53.3991 -48.3715 234° Southwest  Level Estimated
01:19PM 53.3292 -48.5303 234° Southwest  Level Estimated
01:20PM 53.2590 -48.6885 233° Southwest  Level Estimated
01:21PM 53.1886 -48.8463 233° Southwest  Level Estimated
01:21PM 61.8167 -57.7000 233° Southwest 210 242 36,000  Level Gander Center
01:22PM 53.1181 -49.0035 233° Southwest  Level Estimated
01:22PM 61.7500 -57.8833 233° Southwest 380 437 36,000  Level Gander Center
01:23PM 53.0473 -49.1602 233° Southwest  Level Estimated
01:23PM 61.7000 -58.0667 240° Southwest 380 437 36,000  Level Gander Center
01:24PM 52.9763 -49.3163 233° Southwest  Level Estimated
01:24PM 61.6333 -58.2167 227° Southwest 380 437 36,000  Level Gander Center
01:25PM 52.9051 -49.4720 233° Southwest  Level Estimated
01:25PM 61.5667 -58.3833 230° Southwest 380 437 36,000  Level Gander Center
01:26PM 52.8337 -49.6272 233° Southwest  Level Estimated
01:26PM 61.5167 -58.6000 244° Southwest 380 437 36,000  Level Gander Center
01:27PM 52.7621 -49.7818 233° Southwest  Level Estimated
01:27PM 61.4500 -58.7833 233° Southwest 380 437 36,000  Level Gander Center
01:29PM 61.3333 -59.1000 233° Southwest 380 437 36,000  Level Gander Center
01:30PM 61.2667 -59.2833 233° Southwest 390 449 36,000  Level Gander Center
01:31PM 61.2000 -59.4500 230° Southwest 390 449 36,000  Level Gander Center
01:36PM 60.9333 -60.5000 251° West 440 506 36,000  Level Gander Center
01:37PM 60.9000 -60.7333 254° West 450 518 36,000  Level Gander Center
01:38PM 60.8667 -61.0167 257° West 450 518 36,000  Level Gander Center
01:39PM 60.8167 -61.2500 246° West 450 518 36,000  Level Gander Center
01:40PM 60.8415 -60.9605 252° West  Level FlightAware Approximate
01:40PM 60.7833 -61.4833 254° West 450 518 36,000  Level Gander Center
01:41PM 60.8092 -61.1502 251° West  Level FlightAware Approximate
01:41PM 60.7333 -61.7167 246° West 450 518 36,000  Level Gander Center
01:43PM 60.6674 -62.0367 247° West  Level FlightAware Approximate
01:44PM 60.6167 -62.4667 247° West 460 529 36,000  Level Gander Center
01:45PM 60.5667 -62.7000 247° West 460 529 36,000  Level Gander Center
01:46PM 60.5167 -62.9667 249° West 460 529 36,000  Level Gander Center
01:47PM 60.4667 -63.2000 247° West 460 529 36,000  Level Gander Center
01:48PM 60.4333 -63.4333 254° West 460 529 36,000  Level Gander Center
01:49PM 60.3833 -63.6667 247° West 460 529 36,000  Level Gander Center
01:50PM 60.3500 -63.9000 254° West 460 529 36,000  Level Gander Center
01:51PM 60.3000 -64.1667 249° West 460 529 36,000  Level Gander Center
01:52PM 60.2500 -64.4000 247° West 470 541 36,000  Level Gander Center
01:53PM 60.2167 -64.6333 254° West 470 541 36,000  Level Gander Center
01:54PM 60.1333 -64.9500 242° Southwest 470 541 36,000  Level Gander Center
01:55PM 60.0667 -65.1000 228° Southwest 460 529 36,000  Level Montreal Center
01:56PM 60.0000 -65.2833 234° Southwest 450 518 36,000  Level Montreal Center
01:57PM 59.9000 -65.4500 220° Southwest 440 506 36,000  Level Montreal Center
01:58PM 59.8000 -65.6167 220° Southwest 440 506 36,000  Level Montreal Center
01:59PM 59.7167 -65.7833 225° Southwest 440 506 36,000  Level Montreal Center
02:00PM 59.6333 -65.9333 222° Southwest 440 506 36,000  Level Montreal Center
02:01PM 59.5167 -66.1000 216° Southwest 440 506 36,000  Level Montreal Center
02:02PM 59.4333 -66.2667 226° Southwest 450 518 36,000  Level Montreal Center
02:03PM 59.3333 -66.4167 217° Southwest 450 518 36,000  Level Montreal Center
02:04PM 59.2500 -66.5667 223° Southwest 450 518 36,000  Level Montreal Center
02:08PM 58.8500 -67.2833 206° Southwest 450 518 36,000  Level Gander Center
02:09PM 58.7667 -67.4167 220° Southwest 450 518 36,000  Level Gander Center
02:10PM 58.6667 -67.5167 207° Southwest 440 506 36,000  Level Montreal Center
02:11PM 58.5833 -67.6667 223° Southwest 440 506 36,000  Level Montreal Center
02:12PM 58.4833 -67.8167 218° Southwest 440 506 36,000  Level Montreal Center
02:13PM 58.5114 -67.2865 207° Southwest  Level FlightAware Approximate
02:13PM 58.3833 -67.9667 218° Southwest 450 518 36,000  Level Montreal Center
02:14PM 58.4236 -67.3699 206° Southwest  Level FlightAware Approximate
02:14PM 58.2667 -68.1167 214° Southwest 450 518 36,000  Level Montreal Center
02:15PM 58.1833 -68.3000 229° Southwest 470 541 36,000  Level Montreal Center
02:17PM 58.0000 -68.5167 212° Southwest 470 541 36,000  Level Montreal Center
02:18PM 57.9167 -68.6333 217° Southwest 450 518 36,000  Level Montreal Center
02:19PM 57.7500 -68.9167 222° Southwest 450 518 36,000  Level Gander Center
02:20PM 57.6500 -69.0500 216° Southwest 440 506 36,000  Level Gander Center
02:21PM 57.5500 -69.1833 216° Southwest 440 506 36,000  Level Gander Center
02:22PM 57.4500 -69.3167 216° Southwest 440 506 36,000  Level Gander Center
02:23PM 57.3667 -69.4667 224° Southwest 440 506 36,000  Level Gander Center
02:26PM 57.1167 -69.7333 210° Southwest 440 506 36,000  Level Montreal Center
02:27PM 57.0333 -69.8333 213° Southwest 440 506 36,000  Level Montreal Center
02:28PM 56.9167 -69.9833 215° Southwest 440 506 36,000  Level Montreal Center
02:29PM 56.8000 -70.1167 212° Southwest 440 506 36,000  Level Montreal Center
02:30PM 56.7167 -70.2500 221° Southwest 440 506 36,000  Level Montreal Center
02:31PM 56.6167 -70.3667 213° Southwest 440 506 36,000  Level Montreal Center
02:32PM 56.4500 -70.6333 222° Southwest 450 518 36,000  Level Gander Center
02:33PM 56.3333 -70.7500 209° Southwest 450 518 36,000  Level Gander Center
02:34PM 56.2167 -70.8833 212° Southwest 450 518 36,000  Level Gander Center
02:35PM 56.1333 -71.0167 222° Southwest 450 518 36,000  Level Gander Center
02:36PM 56.0167 -71.1333 209° Southwest 450 518 36,000  Level Gander Center
02:38PM 55.8167 -71.3500 211° Southwest 450 518 36,000  Level Gander Center
02:39PM 55.7167 -71.4833 217° Southwest 450 518 36,000  Level Gander Center
02:40PM 55.6167 -71.6000 213° Southwest 450 518 36,000  Level Gander Center
02:41PM 55.5167 -71.7167 213° Southwest 450 518 36,000  Level Gander Center
02:42PM 55.4000 -71.8500 213° Southwest 450 518 36,000  Level Gander Center
02:43PM 55.3167 -71.9667 219° Southwest 440 506 36,000  Level Gander Center
02:44PM 55.2000 -72.1167 216° Southwest 440 506 36,000  Level Gander Center
02:45PM 55.0833 -72.2333 210° Southwest 450 518 36,000  Level Gander Center
02:46PM 55.0000 -72.3500 219° Southwest 450 518 36,000  Level Gander Center
02:47PM 54.8833 -72.4667 210° Southwest 450 518 36,000  Level Gander Center
02:48PM 54.7667 -72.5833 210° Southwest 450 518 36,000  Level Gander Center
02:49PM 54.6667 -72.7000 214° Southwest 450 518 36,000  Level Gander Center
02:50PM 54.5667 -72.8167 214° Southwest 450 518 36,000  Level Gander Center
02:51PM 54.4667 -72.9333 214° Southwest 450 518 36,000  Level Gander Center
02:52PM 54.3500 -73.0500 210° Southwest 450 518 36,000  Level Gander Center
02:53PM 54.2500 -73.1667 214° Southwest 450 518 36,000  Level Gander Center
02:54PM 54.1500 -73.2833 214° Southwest 460 529 36,000  Level Gander Center
02:55PM 54.0333 -73.3833 207° Southwest 450 518 36,000  Level Gander Center
02:56PM 53.9333 -73.5000 214° Southwest 450 518 36,000  Level Gander Center
02:57PM 53.8333 -73.6167 215° Southwest 450 518 36,000  Level Gander Center
02:58PM 53.7167 -73.7167 207° Southwest 450 518 36,000  Level Gander Center
03:04PM 53.0500 -74.2833 204° Southwest 460 529 36,000  Level Gander Center
03:05PM 52.9333 -74.4000 211° Southwest 460 529 36,000  Level Gander Center
03:06PM 52.8167 -74.4833 203° Southwest 460 529 36,000  Level Gander Center
03:07PM 52.7000 -74.5833 207° Southwest 460 529 36,000  Level Gander Center
03:08PM 52.9329 -74.3054 204° Southwest  Level FlightAware Approximate
03:08PM 52.6000 -74.6500 202° Southwest 460 529 36,000  Level Gander Center
03:09PM 52.8429 -74.3714 204° Southwest  Level FlightAware Approximate
03:09PM 52.4833 -74.7667 211° Southwest 460 529 36,000  Level Gander Center
03:10PM 52.7530 -74.4372 204° Southwest  Level FlightAware Approximate
03:10PM 52.3500 -74.8333 197° South 460 529 36,000  Level Gander Center
03:11PM 52.2500 -74.9333 211° Southwest 460 529 36,000  Level Gander Center
03:12PM 52.1333 -75.0167 204° Southwest 460 529 36,000  Level Gander Center
03:13PM 52.0167 -75.1167 208° Southwest 460 529 36,000  Level Gander Center
03:14PM 51.9000 -75.2167 208° Southwest 460 529 36,000  Level Gander Center
03:21PM 51.1833 -75.7167 206° Southwest 450 518 36,000  Level Montreal Center
03:22PM 51.0667 -75.8000 204° Southwest 450 518 36,000  Level Montreal Center
03:23PM 51.1409 -75.6310 206° Southwest  Level FlightAware Approximate
03:23PM 50.9500 -75.8833 204° Southwest 450 518 36,000  Level Montreal Center
03:24PM 51.0525 -75.7002 206° Southwest  Level FlightAware Approximate
03:24PM 50.8500 -75.9667 208° Southwest 450 518 36,000  Level Montreal Center
03:25PM 50.9641 -75.7691 206° Southwest  Level FlightAware Approximate
03:25PM 50.7167 -76.0500 202° Southwest 450 518 36,000  Level Montreal Center
03:26PM 50.8756 -75.8378 206° Southwest  Level FlightAware Approximate
03:26PM 50.6167 -76.1167 203° Southwest 440 506 36,000  Level Montreal Center
03:27PM 50.5000 -76.2000 204° Southwest 440 506 36,000  Level Montreal Center
03:28PM 50.3833 -76.3167 213° Southwest 450 518 36,000  Level Montreal Center
03:29PM 50.2833 -76.3833 203° Southwest 450 518 36,000  Level Montreal Center
03:30PM 50.1667 -76.4667 205° Southwest 450 518 36,000  Level Montreal Center
03:31PM 50.0333 -76.5500 202° Southwest 450 518 36,000  Level Montreal Center
03:32PM 49.9167 -76.6167 200° South 450 518 36,000  Level Montreal Center
03:33PM 49.8167 -76.7000 208° Southwest 450 518 36,000  Level Montreal Center
03:34PM 49.7000 -76.8000 209° Southwest 450 518 36,000  Level Montreal Center
03:35PM 49.5833 -76.8667 200° South 450 518 36,000  Level Montreal Center
03:36PM 49.4833 -76.9500 208° Southwest 440 506 36,000  Level Montreal Center
03:37PM 49.3500 -77.0167 198° South 480 552 36,000  Level Montreal Center
03:38PM 49.2500 -77.1000 209° Southwest 440 506 36,000  Level Montreal Center
03:39PM 49.1333 -77.1667 201° Southwest 450 518 36,000  Level Montreal Center
03:40PM 49.0167 -77.2500 205° Southwest 450 518 36,000  Level Montreal Center
03:41PM 48.8833 -77.3500 206° Southwest 450 518 36,000  Level Montreal Center
03:42PM 48.7833 -77.4167 204° Southwest 450 518 36,000  Level Montreal Center
03:52PM 47.6000 -78.1667 201° Southwest 460 529 36,000  Level Montreal Center
03:53PM 47.7709 -78.0399 201° Southwest  Level FlightAware Approximate
03:53PM 47.4833 -78.2333 201° Southwest 460 529 36,000  Level Montreal Center
03:54PM 47.6789 -78.0929 201° Southwest  Level FlightAware Approximate
03:54PM 47.3833 -78.3000 204° Southwest 450 518 36,000  Level Montreal Center
03:55PM 47.5870 -78.1457 201° Southwest  Level FlightAware Approximate
03:55PM 47.2500 -78.3667 199° South 450 518 36,000  Level Montreal Center
03:56PM 47.4950 -78.1982 201° Southwest  Level FlightAware Approximate
03:56PM 47.1500 -78.4333 204° Southwest 450 518 36,000  Level Montreal Center
03:57PM 47.4030 -78.2507 201° Southwest  Level FlightAware Approximate
03:57PM 47.0000 -78.5000 197° South 450 518 36,000  Level Montreal Center
03:58PM 46.9000 -78.5500 199° South 450 518 36,000  Level Montreal Center
03:58PM 46.8167 -78.5667 188° South 460 529 36,000  Level Toronto Center
03:59PM 46.7167 -78.6333 205° Southwest 450 518 36,000  Level Toronto Center
04:00PM 46.5833 -78.7167 203° Southwest 450 518 36,000  Level Toronto Center
04:01PM 46.4833 -78.7667 199° South 450 518 36,000  Level Toronto Center
04:07PM 45.8500 -79.1500 246° West 440 506 36,000  Level Montreal Center
04:10PM 45.6081 -79.2402 201° Southwest  Level FlightAware Approximate
04:11PM 45.4999 -79.2977 200° South  Level FlightAware Approximate
04:12PM 45.4535 -79.4480 246° West  Level FlightAware Approximate
04:12PM 45.1936 -79.4766 246° West 451 519 36,000  Level FlightAware ADS-B (CYKF)
04:14PM 45.0498 -79.5517 200° South 448 516 36,000  Level FlightAware ADS-B (CYKF)
04:14PM 44.9636 -79.5965 200° South 448 516 36,000  Level FlightAware ADS-B (CYKF)
04:15PM 44.8535 -79.6537 200° South 448 516 36,000  Level FlightAware ADS-B (CYKF)
04:17PM 44.7140 -79.7256 200° South 444 511 36,000  Level FlightAware ADS-B (CYKF)
04:18PM 44.5342 -79.8344 203° Southwest 427 491 36,000  Level FlightAware ADS-B (CYKF)
04:19PM 44.4740 -79.8898 213° Southwest 426 490 36,000  Level FlightAware ADS-B (CYKF)
04:20PM 44.3693 -79.9848 213° Southwest 420 483 36,000  Level FlightAware ADS-B (CYKF)
04:20PM 44.3077 -80.0402 213° Southwest 420 483 36,000  Level FlightAware ADS-B (CYKF)
04:21PM 44.2424 -80.0985 213° Southwest 414 476 36,000  Level FlightAware ADS-B (CYKF)
04:22PM 44.1866 -80.1483 213° Southwest 414 476 36,000  Level FlightAware ADS-B (CYKF)
04:22PM 44.1312 -80.1978 213° Southwest 416 479 36,000  Level FlightAware ADS-B (CYKF)
04:23PM 44.0469 -80.2725 213° Southwest 413 475 36,000  Level FlightAware ADS-B (CYKF)
04:24PM 43.9816 -80.3303 213° Southwest 413 475 36,000  Level FlightAware ADS-B (CYKF)
04:24PM 43.9167 -80.3500 185° South 410 472 36,000  Level Toronto Center
04:25PM 43.8980 -80.4042 212° Southwest 415 478 36,000  Level FlightAware ADS-B
04:26PM 43.8197 -80.4732 212° Southwest 416 479 36,000  Level FlightAware ADS-B (CYKF)
04:26PM 43.7861 -80.5026 212° Southwest 416 479 36,000  Level FlightAware ADS-B (CYKF)
04:27PM 43.7103 -80.5689 212° Southwest 417 480 36,000  Level FlightAware ADS-B (CYKF)
04:29PM 43.5453 -80.5879 185° South  Level Estimated
04:30PM 43.4472 -80.5992 185° South  Level Estimated
04:30PM 43.3604 -80.8727 185° South 424 488 36,000  Level FlightAware ADS-B (CYKF)
04:31PM 43.2954 -80.9286 212° Southwest 422 486 36,000  Level FlightAware ADS-B (CYKF)
04:32PM 43.2293 -80.9853 212° Southwest 422 486 36,000  Level FlightAware ADS-B (CYKF)
04:32PM 43.1631 -81.0420 212° Southwest 422 486 36,000  Level FlightAware ADS-B (CYKF)
04:33PM 43.0976 -81.0981 212° Southwest 422 486 36,000  Level FlightAware ADS-B (CYKF)
04:33PM 43.0378 -81.1474 211° Southwest 432 497 36,000  Level FlightAware ADS-B (CYKF)
04:34PM 42.9599 -81.1956 204° Southwest 435 501 36,000  Level FlightAware ADS-B (CYKF)
04:35PM 42.8886 -81.2410 205° Southwest 433 498 36,000  Level FlightAware ADS-B (CYKF)
04:35PM 42.8138 -81.2875 205° Southwest 432 497 36,000  Level FlightAware ADS-B (CYKF)
04:36PM 42.7364 -81.3350 204° Southwest 430 495 36,000  Level FlightAware ADS-B (CYKF)
04:37PM 42.6655 -81.3785 204° Southwest 429 494 36,000  Level FlightAware ADS-B (CYKF)
04:37PM 42.6004 -81.4183 204° Southwest 432 497 36,000  Level FlightAware ADS-B (CYKF)
04:38PM 42.5215 -81.4665 204° Southwest 433 498 36,000  Level FlightAware ADS-B (CYKF)
04:39PM 42.4782 -81.4928 204° Southwest 434 499 36,000  Level FlightAware ADS-B (CYKF)
04:40PM 42.3669 -81.5604 204° Southwest 435 501 36,000  Level FlightAware ADS-B (CYKF)
04:42PM 42.1159 -81.7120 204° Southwest 427 491 36,000  Level FlightAware ADS-B (CYKF)
04:43PM 42.0233 -81.7676 204° Southwest 425 489 36,000  Level FlightAware ADS-B (CYKF)
04:43PM 41.9622 -81.8047 204° Southwest 427 491 36,000  Level Cleveland Center
04:44PM 41.8547 -81.8678 204° Southwest 421 484 36,000  Level Cleveland Center
04:45PM 41.7475 -81.9303 204° Southwest 419 482 36,000  Level Cleveland Center
04:47PM 41.5311 -82.0589 153° Southeast 423 487 36,000  Level Cleveland Center
04:48PM 41.4239 -82.1228 204° Southwest 424 488 36,000  Level Cleveland Center
04:50PM 41.2919 -82.1850 200° South 433 498 36,000  Level Cleveland Center
04:51PM 41.1744 -82.2269 195° South 438 504 36,000  Level Cleveland Center
04:52PM 41.0597 -82.2683 195° South 428 493 36,000  Level Cleveland Center
04:54PM 40.7694 -82.3721 195° South 424 488 36,000  Level FlightAware ADS-B
04:58PM 40.2908 -82.5399 195° South 419 482 36,000  Level FlightAware ADS-B
04:59PM 40.2142 -82.5665 195° South 421 484 36,000  Level FlightAware ADS-B
05:00PM 40.1448 -82.5855 192° South 437 503 36,000  Level FlightAware ADS-B
05:00PM 40.0545 -82.5940 184° South 447 514 36,000  Level FlightAware ADS-B
05:01PM 39.9322 -82.6033 183° South 446 513 36,000  Level FlightAware ADS-B
05:02PM 39.8310 -82.6102 183° South 444 511 36,000  Level FlightAware ADS-B
05:04PM 39.6000 -82.6258 183° South 437 503 36,000  Level FlightAware ADS-B (KPMH)
05:06PM 39.4049 -82.6538 186° South 417 480 36,000  Level FlightAware ADS-B (KPMH)
05:07PM 39.2168 -82.7179 195° South 417 480 36,000  Level FlightAware ADS-B (KPMH)
05:09PM 39.0320 -82.7804 195° South 414 476 36,000  Level FlightAware ADS-B (KPMH)
05:10PM 38.9238 -82.8172 195° South 412 474 36,000  Level FlightAware ADS-B (KPMH)
05:12PM 38.7378 -82.8748 194° South 404 465 36,000  Level FlightAware ADS-B (KPMH)
05:12PM 38.6789 -82.8985 197° South 408 470 36,000  Level FlightAware ADS-B (KBRY)
05:13PM 38.5635 -82.9419 196° South 403 464 36,000  Level FlightAware ADS-B (KPMH)
05:14PM 38.4483 -82.9849 196° South 403 464 36,000  Level FlightAware ADS-B (KPMH)
05:16PM 38.2801 -83.0477 196° South 405 466 36,000  Level FlightAware ADS-B (KPMH)
05:21PM 37.7998 -83.2247 196° South 409 471 36,000  Level FlightAware ADS-B (KBRY)
05:28PM 37.0308 -83.5058 195° South 409 471 36,000  Level Atlanta Center
05:28PM 36.9417 -83.5325 193° South 413 475 36,000  Level Indianapolis Center
05:29PM 37.0871 -83.4809 195° South  Level FlightAware Approximate
05:29PM 36.8311 -83.5719 196° South 413 475 36,000  Level Indianapolis Center
05:30PM 36.9918 -83.5119 195° South  Level FlightAware Approximate
05:30PM 36.7203 -83.6106 196° South 414 476 36,000  Level Indianapolis Center
05:31PM 36.8966 -83.5428 195° South  Level FlightAware Approximate
05:31PM 36.6106 -83.6492 196° South 412 474 36,000  Level Indianapolis Center
05:32PM 36.8013 -83.5737 195° South  Level FlightAware Approximate
05:32PM 36.4956 -83.6889 196° South 413 475 36,000  Level Indianapolis Center
05:33PM 36.7061 -83.6045 195° South  Level FlightAware Approximate
05:33PM 36.3844 -83.7283 196° South 414 476 36,000  Level Indianapolis Center
05:34PM 36.2728 -83.7669 196° South 415 478 36,000  Level Indianapolis Center
05:35PM 36.1614 -83.8058 196° South 414 476 36,000  Level Indianapolis Center
05:36PM 36.0475 -83.8442 195° South 419 482 36,000  Level Indianapolis Center
05:38PM 35.9358 -83.8833 196° South 417 480 36,000  Level Indianapolis Center
05:43PM 35.2189 -84.0608 196° South 426 490 36,000  Level FlightAware ADS-B (KDZJ)
05:44PM 35.1470 -84.0780 191° South 425 489 36,000  Level FlightAware ADS-B (KDZJ)
05:45PM 35.0656 -84.0974 191° South 428 493 36,000  Level FlightAware ADS-B (KDZJ)
05:45PM 34.9865 -84.1163 191° South 424 488 36,000  Level FlightAware ADS-B (KDZJ)
05:46PM 34.9065 -84.1354 191° South 414 476 36,000  Level FlightAware ADS-B (KDZJ)
05:47PM 34.8272 -84.1542 191° South 423 487 36,000  Level FlightAware ADS-B (KDZJ)
05:47PM 34.7613 -84.1700 191° South 425 489 36,000  Level FlightAware ADS-B (KDZJ)
05:48PM 34.6872 -84.1876 191° South 425 489 36,000  Level FlightAware ADS-B (KDZJ)
05:50PM 34.4461 -84.2445 191° South 411 473 36,000  Level FlightAware ADS-B (KDZJ)
05:51PM 34.3689 -84.2627 191° South 408 470 36,000  Level FlightAware ADS-B (KDZJ)
05:51PM 34.2949 -84.2800 191° South 414 476 36,000  Level FlightAware ADS-B (KDZJ)
05:52PM 34.2180 -84.2980 191° South 412 474 36,000  Level FlightAware ADS-B (KDZJ)
05:53PM 34.1425 -84.3157 191° South 410 472 36,000  Level FlightAware ADS-B (KDZJ)
05:53PM 34.0691 -84.3328 191° South 410 472 36,000  Level FlightAware ADS-B (KDZJ)
05:54PM 33.9935 -84.3505 191° South 410 472 36,000  Level FlightAware ADS-B (KDZJ)
05:55PM 33.9567 -84.3619 191° South 410 472 36,000 360 Level Atlanta Center
05:56PM 33.8439 -84.3889 191° South 410 472 36,600 300 Climbing Atlanta Center
05:58PM 33.6161 -84.4331 189° South 415 478 37,000 120 Climbing Atlanta Center
05:59PM 33.5119 -84.4350 181° South 415 478 37,000  Level Atlanta Center
06:00PM 33.3969 -84.4344 180° South 415 478 37,000  Level Atlanta Center
06:01PM 33.2844 -84.4339 180° South 415 478 37,000  Level Atlanta Center
06:02PM 33.1675 -84.4308 179° South 415 478 37,000  Level Atlanta Center
06:03PM 33.0525 -84.4306 180° South 415 478 37,000  Level Atlanta Center
06:04PM 32.9275 -84.4275 179° South 420 483 37,000  Level Atlanta Center
06:05PM 32.8125 -84.4269 180° South 420 483 37,000  Level Atlanta Center
06:06PM 32.6978 -84.4189 177° South 420 483 37,000  Level Atlanta Center
06:07PM 32.5850 -84.4161 179° South 415 478 37,000  Level Atlanta Center
06:08PM 32.4744 -84.4156 180° South 415 478 37,000  Level Atlanta Center
06:09PM 32.3617 -84.4125 179° South 415 478 37,000  Level Atlanta Center
06:10PM 32.2511 -84.4097 179° South 410 472 37,000  Level Atlanta Center
06:11PM 32.0781 -84.4053 179° South 416 479 37,000  Level Jacksonville Center
06:12PM 31.9675 -84.4036 179° South 416 479 37,000  Level Jacksonville Center
06:18PM 31.3469 -84.3893 179° South 396 456 37,000  Level FlightAware ADS-B (KTLH)
06:18PM 31.2580 -84.3877 179° South 397 457 37,000  Level FlightAware ADS-B (KTLH)
06:19PM 31.1709 -84.3859 179° South 397 457 37,000  Level FlightAware ADS-B (KTLH)
06:20PM 31.0988 -84.3845 179° South 396 456 37,000  Level FlightAware ADS-B (KTLH)
06:21PM 31.0559 -84.3836 179° South 406 467 37,000  Level FlightAware ADS-B (KTLH)
06:21PM 30.9850 -84.3677 169° South 437 503 37,000  Level FlightAware ADS-B (KTLH)
06:22PM 30.9109 -84.3216 152° Southeast 451 519 37,000  Level FlightAware ADS-B (KTLH)
06:22PM 30.8455 -84.2806 152° Southeast 450 518 37,000  Level FlightAware ADS-B (KTLH)
06:23PM 30.7672 -84.2319 152° Southeast 451 519 37,000  Level FlightAware ADS-B (KTLH)
06:24PM 30.6938 -84.1863 152° Southeast 452 520 37,000  Level FlightAware ADS-B (KTLH)
06:24PM 30.6422 -84.1543 152° Southeast 451 519 37,000  Level FlightAware ADS-B (KTLH)
06:25PM 30.5423 -84.0939 152° Southeast 452 520 37,000  Level FlightAware ADS-B (KTLH)
06:26PM 30.4688 -84.0498 153° Southeast 454 522 37,000  Level FlightAware ADS-B (KTLH)
06:26PM 30.4201 -84.0205 153° Southeast 456 525 37,000  Level FlightAware ADS-B (KTLH)
06:27PM 30.3443 -83.9749 153° Southeast 450 518 37,000  Level FlightAware ADS-B (KTLH)
06:28PM 30.2459 -83.9156 153° Southeast 445 512 37,000  Level FlightAware ADS-B (KTLH)
06:28PM 30.2000 -83.8882 153° Southeast 444 511 37,000  Level FlightAware ADS-B (KTLH)
06:29PM 30.1273 -83.8447 153° Southeast 444 511 37,000  Level FlightAware ADS-B (KTLH)
06:30PM 29.9565 -83.7428 153° Southeast 448 516 37,000  Level FlightAware ADS-B (KTLH)
06:31PM 29.8653 -83.6903 153° Southeast 447 514 37,000  Level Jacksonville Center
06:32PM 29.7633 -83.6319 154° Southeast 447 514 37,000  Level Jacksonville Center
06:33PM 29.6531 -83.5642 152° Southeast 447 514 37,000  Level Jacksonville Center
06:34PM 29.5406 -83.4964 152° Southeast 447 514 37,000  Level Jacksonville Center
06:35PM 29.4283 -83.4314 153° Southeast 447 514 37,000  Level Jacksonville Center
06:36PM 29.3136 -83.3664 154° Southeast 447 514 37,000  Level Jacksonville Center
06:37PM 29.2011 -83.2969 152° Southeast 447 514 37,000  Level Jacksonville Center
06:38PM 29.0867 -83.2322 154° Southeast 447 514 37,000  Level Jacksonville Center
06:39PM 28.9761 -83.1656 152° Southeast 447 514 37,000  Level Jacksonville Center
06:40PM 28.8592 -83.1011 154° Southeast 452 520 37,000  Level Jacksonville Center
06:41PM 28.7489 -83.0347 152° Southeast 452 520 37,000  Level Jacksonville Center
06:42PM 28.6342 -82.9706 154° Southeast 447 514 37,000  Level Jacksonville Center
06:43PM 28.5233 -82.9044 152° Southeast 447 514 37,000  Level Jacksonville Center
06:44PM 28.4108 -82.8406 153° Southeast 447 514 37,000  Level Jacksonville Center
06:45PM 28.3000 -82.7769 153° Southeast 447 514 37,000  Level Jacksonville Center
06:47PM 28.0408 -82.6289 153° Southeast 453 521 37,000  Level Miami Center
06:48PM 27.9347 -82.5647 152° Southeast 461 531 37,000  Level Miami Center
06:49PM 27.8181 -82.5142 159° South 455 524 37,000 -60 Level Miami Center
07:05PM 25.9978 -82.5236 181° South 421 484 36,000 -60 Descending Miami Center
07:06PM 26.2298 -82.5414 181° South  Level FlightAware Approximate
07:06PM 25.8706 -82.5200 179° South 421 484 36,000  Level Miami Center
07:07PM 26.1318 -82.5430 181° South  Level FlightAware Approximate
07:07PM 25.7558 -82.5192 180° South 421 484 36,000  Level Miami Center
07:08PM 26.0337 -82.5447 181° South  Level FlightAware Approximate
07:08PM 25.6411 -82.5183 180° South 421 484 36,000  Level Miami Center
07:09PM 25.9357 -82.5463 181° South  Level FlightAware Approximate
07:09PM 25.5242 -82.5175 180° South 421 484 36,000  Level Miami Center
07:10PM 25.8377 -82.5480 181° South  Level FlightAware Approximate
07:10PM 25.4092 -82.5214 182° South 421 484 36,000  Level Miami Center
07:11PM 25.7396 -82.5496 181° South  Level FlightAware Approximate
07:11PM 25.2922 -82.5206 180° South 421 484 36,000  Level Miami Center
07:12PM 25.1858 -82.5200 180° South 426 490 36,000  Level Miami Center
07:13PM 25.0711 -82.5217 181° South 421 484 36,000  Level Miami Center
07:14PM 24.9519 -82.5208 180° South 421 484 36,000 -540 Level Miami Center
07:15PM 24.8331 -82.5197 180° South 421 484 35,000 -960 Descending Miami Center
07:17PM 24.7142 -82.5211 181° South 426 490 34,000 -1,440 Descending Miami Center
07:18PM 24.5700 -82.5214 180° South 431 496 31,900 -2,100 Descending Miami Center
07:19PM 24.4594 -82.5211 180° South 421 484 29,900 -1,980 Descending Miami Center
07:20PM 24.3425 -82.5203 180° South 416 479 28,000 -1,920 Descending Miami Center
07:21PM 24.2319 -82.5197 180° South 410 472 26,100 -1,920 Descending Miami Center
07:22PM 24.1253 -82.5217 181° South 404 465 24,200 -1,920 Descending Miami Center
07:23PM 24.0107 -82.5167 180° South  Level FlightAware Approximate
07:30PM 23.2142 -82.4167 180° South  Level FlightAware Approximate
07:31PM 23.1002 -82.4100 170° South  Level FlightAware Approximate
07:32PM 22.9865 -82.4000 180° South  Level FlightAware Approximate
07:33PM 22.9891 -82.4091 180° South  Level Estimated
07:34PM 22.9891 -82.4091 180° South  Level Estimated
07:35PM 22.9891 -82.4091 180° South  Level Estimated
07:36PM 22.9891 -82.4091 180° South  Level Estimated
07:37PM 22.9891 -82.4091 180° South  Level Estimated
07:38PM 22.9891 -82.4091 180° South  Level Estimated
07:39PM 22.9891 -82.4091 180° South  Level Estimated
07:40PM 22.9891 -82.4091 180° South  Level Estimated
07:41PM 22.9891 -82.4091 180° South  Level Estimated
07:42PM 22.9891 -82.4091 180° South  Level Estimated
07:43PM 22.9891 -82.4091 180° South  Level Estimated
07:44PM 22.9891 -82.4091 180° South  Level Estimated
07:45PM 22.9891 -82.4091 180° South  Level Estimated
07:46PM 22.9891 -82.4091 180° South  Level Estimated
07:47PM 22.9891 -82.4091 180° South  Level Estimated
07:48PM 22.9891 -82.4091 180° South  Level Estimated
07:49PM 22.9891 -82.4091 180° South  Level Estimated
07:50PM 22.9891 -82.4091 180° South  Level Estimated
07:51PM 22.9891 -82.4091 180° South  Level Estimated
07:52PM 22.9891 -82.4091 180° South  Level Estimated
07:53PM 22.9891 -82.4091 180° South  Level Estimated